Missoula International Airport Missoula US
ICAO: KMSO
IATA: MSO
Category: Medium
Scheduled Services: Yes

Elevation: 3206 ft
TransAlt. 18000 ft.

Airport Communications:
SPOKANE APP/DEP:124.9
ATIS:126.65
CTAF:118.4
GND:121.9
GREAT FALLS RDO:122.45
TWR:118.4
UNICOM:122.95

KMSO Zoom In..

If you have problems with the map follow the link
https://www.worldairports.se/pages/airport.php?
ICAO=KMSO

Runways:

(A) RW 07 length 4612 ft width 75 ft
---- / hdg 72

(B) RW 11 length 9501 ft width 150 ft
ILS 109.30 / hdg 113

(C) RW 25 length 4612 ft width 75 ft
---- / hdg 252

(D) RW 29 length 9501 ft width 150 ft
---- / hdg 293

Location; KMSO
Day. 19 / Time. 13.53 Zulu
* Altimeter: 30.29
* Temperature: -06° c. -21.2°f.
* Wind from: 000° Speed 00 kn.
Dewpoint: -08° c.
Visibility: 9 Statute Miles.
Clouds: Clear (automated report).

KMSO 191353Z 00000KT 9SM CLR M06/M08 A3029 RMK AO2 SLP296 I1001 T10611078


Wind - Calm.

 
 
jpsmedia.com for Web Design worldairports.se 2018   terms of use